sensor_id;sensor_type;location;lat;lon;timestamp;pressure;altitude;pressure_sealevel;temperature;humidity
61119;BME280;51448;51.660;5.824;2023-01-30T00:01:01;101714.94;;;4.40;100.00
61119;BME280;51448;51.660;5.824;2023-01-30T00:03:31;101691.53;;;4.42;100.00
61119;BME280;51448;51.660;5.824;2023-01-30T00:06:00;101681.16;;;4.45;100.00
61119;BME280;51448;51.660;5.824;2023-01-30T00:08:28;101686.34;;;4.47;100.00
61119;BME280;51448;51.660;5.824;2023-01-30T00:10:55;101676.81;;;4.49;100.00
61119;BME280;51448;51.660;5.824;2023-01-30T00:13:23;101671.63;;;4.50;100.00
61119;BME280;51448;51.660;5.824;2023-01-30T00:15:50;101679.47;;;4.52;100.00
61119;BME280;51448;51.660;5.824;2023-01-30T00:18:18;101664.75;;;4.54;100.00
61119;BME280;51448;51.660;5.824;2023-01-30T00:20:45;101663.03;;;4.56;100.00
61119;BME280;51448;51.660;5.824;2023-01-30T00:23:13;101664.78;;;4.58;100.00
61119;BME280;51448;51.660;5.824;2023-01-30T00:25:44;101676.94;;;4.61;100.00
61119;BME280;51448;51.660;5.824;2023-01-30T00:28:12;101670.03;;;4.64;100.00
61119;BME280;51448;51.660;5.824;2023-01-30T00:30:40;101669.19;;;4.66;100.00
61119;BME280;51448;51.660;5.824;2023-01-30T00:33:09;101670.97;;;4.68;100.00
61119;BME280;51448;51.660;5.824;2023-01-30T00:35:36;101652.72;;;4.71;100.00
61119;BME280;51448;51.660;5.824;2023-01-30T00:38:04;101658.81;;;4.73;100.00
61119;BME280;51448;51.660;5.824;2023-01-30T00:40:32;101651.94;;;4.78;100.00
61119;BME280;51448;51.660;5.824;2023-01-30T00:42:59;101648.47;;;4.81;100.00
61119;BME280;51448;51.660;5.824;2023-01-30T00:45:46;101646.75;;;4.83;100.00
61119;BME280;51448;51.660;5.824;2023-01-30T00:48:34;101645.06;;;4.87;100.00
61119;BME280;51448;51.660;5.824;2023-01-30T00:51:02;101644.22;;;4.89;100.00
61119;BME280;51448;51.660;5.824;2023-01-30T00:53:29;101647.72;;;4.93;100.00
61119;BME280;51448;51.660;5.824;2023-01-30T00:55:57;101650.34;;;4.96;100.00
61119;BME280;51448;51.660;5.824;2023-01-30T00:58:25;101635.63;;;5.01;100.00
61119;BME280;51448;51.660;5.824;2023-01-30T01:00:53;101628.69;;;5.04;100.00
61119;BME280;51448;51.660;5.824;2023-01-30T01:03:22;101631.28;;;5.06;100.00
61119;BME280;51448;51.660;5.824;2023-01-30T01:05:50;101645.22;;;5.10;100.00
61119;BME280;51448;51.660;5.824;2023-01-30T01:08:18;101642.66;;;5.13;100.00
61119;BME280;51448;51.660;5.824;2023-01-30T01:10:46;101636.59;;;5.15;100.00
61119;BME280;51448;51.660;5.824;2023-01-30T01:13:14;101625.31;;;5.19;100.00
61119;BME280;51448;51.660;5.824;2023-01-30T01:15:41;101616.63;;;5.22;100.00
61119;BME280;51448;51.660;5.824;2023-01-30T01:18:09;101609.72;;;5.27;100.00
61119;BME280;51448;51.660;5.824;2023-01-30T01:20:36;101615.81;;;5.29;100.00
61119;BME280;51448;51.660;5.824;2023-01-30T01:23:04;101616.69;;;5.33;100.00
61119;BME280;51448;51.660;5.824;2023-01-30T01:25:31;101614.09;;;5.34;100.00
61119;BME280;51448;51.660;5.824;2023-01-30T01:27:59;101610.63;;;5.37;100.00
61119;BME280;51448;51.660;5.824;2023-01-30T01:30:27;101608.91;;;5.39;100.00
61119;BME280;51448;51.660;5.824;2023-01-30T01:32:55;101605.44;;;5.43;100.00
61119;BME280;51448;51.660;5.824;2023-01-30T01:35:23;101603.75;;;5.43;100.00
61119;BME280;51448;51.660;5.824;2023-01-30T01:37:54;101618.53;;;5.46;100.00
61119;BME280;51448;51.660;5.824;2023-01-30T01:40:22;101610.72;;;5.48;100.00
61119;BME280;51448;51.660;5.824;2023-01-30T01:43:23;101602.03;;;5.52;100.00
61119;BME280;51448;51.660;5.824;2023-01-30T01:45:54;101601.16;;;5.53;100.00
61119;BME280;51448;51.660;5.824;2023-01-30T01:48:31;101594.22;;;5.56;100.00
61119;BME280;51448;51.660;5.824;2023-01-30T01:51:08;101589.03;;;5.58;100.00
61119;BME280;51448;51.660;5.824;2023-01-30T01:53:47;101578.59;;;5.62;100.00
61119;BME280;51448;51.660;5.824;2023-01-30T01:56:23;101565.53;;;5.62;100.00
61119;BME280;51448;51.660;5.824;2023-01-30T01:58:58;101566.44;;;5.66;100.00
61119;BME280;51448;51.660;5.824;2023-01-30T02:01:53;101556.88;;;5.67;100.00
61119;BME280;51448;51.660;5.824;2023-01-30T02:04:26;101545.56;;;5.71;100.00
61119;BME280;51448;51.660;5.824;2023-01-30T02:07:16;101553.41;;;5.72;100.00
61119;BME280;51448;51.660;5.824;2023-01-30T02:09:48;101556.88;;;5.73;100.00
61119;BME280;51448;51.660;5.824;2023-01-30T02:12:19;101554.28;;;5.76;100.00
61119;BME280;51448;51.660;5.824;2023-01-30T02:14:48;101542.09;;;5.78;100.00
61119;BME280;51448;51.660;5.824;2023-01-30T02:17:16;101554.28;;;5.79;100.00
61119;BME280;51448;51.660;5.824;2023-01-30T02:19:54;101543.84;;;5.82;100.00
61119;BME280;51448;51.660;5.824;2023-01-30T02:29:54;101542.13;;;5.84;100.00
61119;BME280;51448;51.660;5.824;2023-01-30T02:35:39;101528.22;;;5.85;100.00
61119;BME280;51448;51.660;5.824;2023-01-30T02:38:40;101525.59;;;5.88;100.00
61119;BME280;51448;51.660;5.824;2023-01-30T02:44:05;101514.28;;;5.88;100.00
61119;BME280;51448;51.660;5.824;2023-01-30T02:46:58;101517.75;;;5.88;100.00
61119;BME280;51448;51.660;5.824;2023-01-30T02:49:48;101505.56;;;5.90;100.00
61119;BME280;51448;51.660;5.824;2023-01-30T02:52:21;101514.28;;;5.89;100.00
61119;BME280;51448;51.660;5.824;2023-01-30T02:54:49;101507.34;;;5.91;100.00
61119;BME280;51448;51.660;5.824;2023-01-30T02:57:19;101493.41;;;5.92;100.00
61119;BME280;51448;51.660;5.824;2023-01-30T02:59:58;101491.69;;;5.93;100.00
61119;BME280;51448;51.660;5.824;2023-01-30T03:07:59;101496.03;;;5.94;100.00
61119;BME280;51448;51.660;5.824;2023-01-30T03:10:46;101493.41;;;5.94;100.00
61119;BME280;51448;51.660;5.824;2023-01-30T03:13:46;101489.06;;;5.93;100.00
61119;BME280;51448;51.660;5.824;2023-01-30T03:16:23;101476.00;;;5.91;100.00
61119;BME280;51448;51.660;5.824;2023-01-30T03:19:08;101478.63;;;5.91;100.00
61119;BME280;51448;51.660;5.824;2023-01-30T03:21:42;101484.69;;;5.90;100.00
61119;BME280;51448;51.660;5.824;2023-01-30T03:24:12;101479.47;;;5.87;100.00
61119;BME280;51448;51.660;5.824;2023-01-30T03:26:47;101478.63;;;5.87;100.00
61119;BME280;51448;51.660;5.824;2023-01-30T03:29:21;101475.13;;;5.84;100.00
61119;BME280;51448;51.660;5.824;2023-01-30T03:31:49;101478.59;;;5.85;100.00
61119;BME280;51448;51.660;5.824;2023-01-30T03:34:18;101469.91;;;5.84;100.00
61119;BME280;51448;51.660;5.824;2023-01-30T03:36:46;101471.63;;;5.84;100.00
61119;BME280;51448;51.660;5.824;2023-01-30T03:39:15;101457.72;;;5.83;100.00
61119;BME280;51448;51.660;5.824;2023-01-30T03:41:43;101449.00;;;5.81;100.00
61119;BME280;51448;51.660;5.824;2023-01-30T03:44:11;101457.72;;;5.83;100.00
61119;BME280;51448;51.660;5.824;2023-01-30T03:46:41;101449.00;;;5.81;100.00
61119;BME280;51448;51.660;5.824;2023-01-30T03:49:08;101455.97;;;5.81;100.00
61119;BME280;51448;51.660;5.824;2023-01-30T03:51:36;101451.63;;;5.81;100.00
61119;BME280;51448;51.660;5.824;2023-01-30T03:54:04;101443.78;;;5.81;100.00
61119;BME280;51448;51.660;5.824;2023-01-30T03:56:33;101437.69;;;5.79;100.00
61119;BME280;51448;51.660;5.824;2023-01-30T03:59:00;101450.75;;;5.82;100.00
61119;BME280;51448;51.660;5.824;2023-01-30T04:01:36;101443.78;;;5.80;100.00
61119;BME280;51448;51.660;5.824;2023-01-30T04:04:04;101447.28;;;5.80;100.00
61119;BME280;51448;51.660;5.824;2023-01-30T04:06:32;101452.50;;;5.80;100.00
61119;BME280;51448;51.660;5.824;2023-01-30T04:09:04;101455.97;;;5.81;100.00
61119;BME280;51448;51.660;5.824;2023-01-30T04:11:37;101457.72;;;5.80;100.00
61119;BME280;51448;51.660;5.824;2023-01-30T04:14:05;101448.13;;;5.84;100.00
61119;BME280;51448;51.660;5.824;2023-01-30T04:16:39;101455.13;;;5.85;100.00
61119;BME280;51448;51.660;5.824;2023-01-30T04:19:25;101453.34;;;5.84;100.00
61119;BME280;51448;51.660;5.824;2023-01-30T04:21:54;101449.91;;;5.87;100.00
61119;BME280;51448;51.660;5.824;2023-01-30T04:24:22;101436.84;;;5.87;100.00
61119;BME280;51448;51.660;5.824;2023-01-30T04:26:50;101432.50;;;5.87;100.00
61119;BME280;51448;51.660;5.824;2023-01-30T04:29:18;101441.19;;;5.89;100.00
61119;BME280;51448;51.660;5.824;2023-01-30T04:31:48;101437.69;;;5.90;100.00
61119;BME280;51448;51.660;5.824;2023-01-30T04:34:22;101430.72;;;5.92;100.00
61119;BME280;51448;51.660;5.824;2023-01-30T04:36:50;101437.75;;;5.95;100.00
61119;BME280;51448;51.660;5.824;2023-01-30T04:39:17;101433.38;;;5.98;100.00
61119;BME280;51448;51.660;5.824;2023-01-30T04:41:48;101445.59;;;6.01;100.00
61119;BME280;51448;51.660;5.824;2023-01-30T04:44:15;101444.72;;;6.03;100.00
61119;BME280;51448;51.660;5.824;2023-01-30T04:46:50;101439.50;;;6.05;100.00
61119;BME280;51448;51.660;5.824;2023-01-30T04:49:19;101440.34;;;6.09;100.00
61119;BME280;51448;51.660;5.824;2023-01-30T04:51:48;101437.75;;;6.12;100.00
61119;BME280;51448;51.660;5.824;2023-01-30T04:54:16;101445.59;;;6.18;100.00
61119;BME280;51448;51.660;5.824;2023-01-30T04:56:43;101444.72;;;6.20;100.00
61119;BME280;51448;51.660;5.824;2023-01-30T04:59:11;101443.84;;;6.28;100.00
61119;BME280;51448;51.660;5.824;2023-01-30T05:01:42;101435.13;;;6.32;100.00
61119;BME280;51448;51.660;5.824;2023-01-30T05:04:10;101433.41;;;6.34;100.00
61119;BME280;51448;51.660;5.824;2023-01-30T05:06:39;101452.53;;;6.37;100.00
61119;BME280;51448;51.660;5.824;2023-01-30T05:09:06;101443.81;;;6.41;100.00
61119;BME280;51448;51.660;5.824;2023-01-30T05:11:34;101437.75;;;6.44;100.00
61119;BME280;51448;51.660;5.824;2023-01-30T05:14:02;101438.59;;;6.48;100.00
61119;BME280;51448;51.660;5.824;2023-01-30T05:16:29;101427.25;;;6.52;100.00
61119;BME280;51448;51.660;5.824;2023-01-30T05:18:57;101424.66;;;6.55;100.00
61119;BME280;51448;51.660;5.824;2023-01-30T05:21:26;101427.25;;;6.58;100.00
61119;BME280;51448;51.660;5.824;2023-01-30T05:23:55;101432.47;;;6.59;100.00
61119;BME280;51448;51.660;5.824;2023-01-30T05:26:23;101435.09;;;6.61;100.00
61119;BME280;51448;51.660;5.824;2023-01-30T05:28:53;101438.56;;;6.64;100.00
61119;BME280;51448;51.660;5.824;2023-01-30T05:31:22;101428.09;;;6.66;100.00
61119;BME280;51448;51.660;5.824;2023-01-30T05:33:51;101427.25;;;6.69;100.00
61119;BME280;51448;51.660;5.824;2023-01-30T05:36:21;101438.56;;;6.71;100.00
61119;BME280;51448;51.660;5.824;2023-01-30T05:38:49;101433.34;;;6.71;100.00
61119;BME280;51448;51.660;5.824;2023-01-30T05:41:18;101442.91;;;6.73;100.00
61119;BME280;51448;51.660;5.824;2023-01-30T05:43:49;101442.00;;;6.74;100.00
61119;BME280;51448;51.660;5.824;2023-01-30T05:46:17;101441.16;;;6.74;100.00
61119;BME280;51448;51.660;5.824;2023-01-30T05:48:45;101441.16;;;6.72;100.00
61119;BME280;51448;51.660;5.824;2023-01-30T05:51:19;101457.69;;;6.74;100.00
61119;BME280;51448;51.660;5.824;2023-01-30T05:53:48;101447.25;;;6.71;100.00
61119;BME280;51448;51.660;5.824;2023-01-30T05:56:17;101454.22;;;6.72;100.00
61119;BME280;51448;51.660;5.824;2023-01-30T05:58:53;101447.28;;;6.73;100.00
61119;BME280;51448;51.660;5.824;2023-01-30T06:01:22;101451.59;;;6.72;100.00
61119;BME280;51448;51.660;5.824;2023-01-30T06:03:50;101457.72;;;6.73;100.00
61119;BME280;51448;51.660;5.824;2023-01-30T06:06:19;101462.06;;;6.72;100.00
61119;BME280;51448;51.660;5.824;2023-01-30T06:08:51;101449.00;;;6.72;100.00
61119;BME280;51448;51.660;5.824;2023-01-30T06:11:20;101459.44;;;6.74;100.00
61119;BME280;51448;51.660;5.824;2023-01-30T06:13:49;101456.84;;;6.75;100.00
61119;BME280;51448;51.660;5.824;2023-01-30T06:16:17;101453.34;;;6.76;100.00
61119;BME280;51448;51.660;5.824;2023-01-30T06:18:45;101468.16;;;6.76;100.00
61119;BME280;51448;51.660;5.824;2023-01-30T06:21:14;101474.28;;;6.75;100.00
61119;BME280;51448;51.660;5.824;2023-01-30T06:23:42;101473.38;;;6.74;100.00
61119;BME280;51448;51.660;5.824;2023-01-30T06:26:10;101471.66;;;6.75;100.00
61119;BME280;51448;51.660;5.824;2023-01-30T06:28:38;101487.34;;;6.73;100.00
61119;BME280;51448;51.660;5.824;2023-01-30T06:31:06;101486.47;;;6.73;100.00
61119;BME280;51448;51.660;5.824;2023-01-30T06:33:35;101508.25;;;6.70;100.00
61119;BME280;51448;51.660;5.824;2023-01-30T06:36:03;101503.03;;;6.70;100.00
61119;BME280;51448;51.660;5.824;2023-01-30T06:38:31;101509.13;;;6.69;100.00
61119;BME280;51448;51.660;5.824;2023-01-30T06:40:58;101523.06;;;6.68;100.00
61119;BME280;51448;51.660;5.824;2023-01-30T06:43:26;101511.75;;;6.66;100.00
61119;BME280;51448;51.660;5.824;2023-01-30T06:45:53;101500.41;;;6.64;100.00
61119;BME280;51448;51.660;5.824;2023-01-30T06:48:21;101510.88;;;6.61;100.00
61119;BME280;51448;51.660;5.824;2023-01-30T06:50:48;101503.03;;;6.58;100.00
61119;BME280;51448;51.660;5.824;2023-01-30T06:53:16;101495.22;;;6.55;100.00
61119;BME280;51448;51.660;5.824;2023-01-30T06:55:46;101503.03;;;6.52;100.00
61119;BME280;51448;51.660;5.824;2023-01-30T06:58:13;101512.63;;;6.47;100.00
61119;BME280;51448;51.660;5.824;2023-01-30T07:00:42;101490.84;;;6.43;100.00
61119;BME280;51448;51.660;5.824;2023-01-30T07:03:11;101491.75;;;6.40;100.00
61119;BME280;51448;51.660;5.824;2023-01-30T07:05:42;101499.56;;;6.37;100.00
61119;BME280;51448;51.660;5.824;2023-01-30T07:08:11;101501.31;;;6.34;100.00
61119;BME280;51448;51.660;5.824;2023-01-30T07:10:40;101495.22;;;6.30;100.00
61119;BME280;51448;51.660;5.824;2023-01-30T07:13:08;101495.19;;;6.27;100.00
61119;BME280;51448;51.660;5.824;2023-01-30T07:15:37;101496.06;;;6.23;100.00
61119;BME280;51448;51.660;5.824;2023-01-30T07:18:04;101509.16;;;6.20;100.00
61119;BME280;51448;51.660;5.824;2023-01-30T07:20:32;101504.78;;;6.16;100.00
61119;BME280;51448;51.660;5.824;2023-01-30T07:23:00;101505.66;;;6.12;100.00
61119;BME280;51448;51.660;5.824;2023-01-30T07:25:28;101514.34;;;6.08;100.00
61119;BME280;51448;51.660;5.824;2023-01-30T07:27:58;101512.63;;;6.05;100.00
61119;BME280;51448;51.660;5.824;2023-01-30T07:30:32;101503.03;;;6.02;100.00
61119;BME280;51448;51.660;5.824;2023-01-30T07:33:03;101515.19;;;6.00;100.00
61119;BME280;51448;51.660;5.824;2023-01-30T07:35:35;101519.56;;;6.00;100.00
61119;BME280;51448;51.660;5.824;2023-01-30T07:38:04;101538.72;;;5.97;100.00
61119;BME280;51448;51.660;5.824;2023-01-30T07:40:32;101537.84;;;5.95;100.00
61119;BME280;51448;51.660;5.824;2023-01-30T07:43:03;101530.00;;;5.95;100.00
61119;BME280;51448;51.660;5.824;2023-01-30T07:45:39;101535.22;;;5.95;100.00
61119;BME280;51448;51.660;5.824;2023-01-30T07:48:11;101533.44;;;5.94;100.00
61119;BME280;51448;51.660;5.824;2023-01-30T07:50:44;101540.41;;;5.92;100.00
61119;BME280;51448;51.660;5.824;2023-01-30T07:53:14;101531.72;;;5.93;100.00
61119;BME280;51448;51.660;5.824;2023-01-30T07:55:44;101544.75;;;5.90;100.00
61119;BME280;51448;51.660;5.824;2023-01-30T07:58:13;101546.50;;;5.90;100.00
61119;BME280;51448;51.660;5.824;2023-01-30T08:00:42;101556.91;;;5.88;100.00
61119;BME280;51448;51.660;5.824;2023-01-30T08:03:12;101556.06;;;5.89;100.00
61119;BME280;51448;51.660;5.824;2023-01-30T08:05:40;101551.69;;;5.88;100.00
61119;BME280;51448;51.660;5.824;2023-01-30T08:08:08;101552.59;;;5.89;100.00
61119;BME280;51448;51.660;5.824;2023-01-30T08:10:36;101549.97;;;5.89;100.00
61119;BME280;51448;51.660;5.824;2023-01-30T08:13:03;101558.69;;;5.89;100.00
61119;BME280;51448;51.660;5.824;2023-01-30T08:15:31;101567.34;;;5.88;100.00
61119;BME280;51448;51.660;5.824;2023-01-30T08:17:59;101563.03;;;5.87;100.00
61119;BME280;51448;51.660;5.824;2023-01-30T08:20:27;101566.50;;;5.88;100.00
61119;BME280;51448;51.660;5.824;2023-01-30T08:22:55;101557.81;;;5.87;100.00
61119;BME280;51448;51.660;5.824;2023-01-30T08:25:25;101564.78;;;5.87;100.00
61119;BME280;51448;51.660;5.824;2023-01-30T08:27:52;101549.97;;;5.87;100.00
61119;BME280;51448;51.660;5.824;2023-01-30T08:30:21;101560.41;;;5.87;100.00
61119;BME280;51448;51.660;5.824;2023-01-30T08:32:49;101563.03;;;5.87;100.00
61119;BME280;51448;51.660;5.824;2023-01-30T08:35:17;101560.44;;;5.89;100.00
61119;BME280;51448;51.660;5.824;2023-01-30T08:37:44;101565.63;;;5.90;100.00
61119;BME280;51448;51.660;5.824;2023-01-30T08:40:13;101576.94;;;5.92;100.00
61119;BME280;51448;51.660;5.824;2023-01-30T08:42:43;101583.03;;;5.94;100.00
61119;BME280;51448;51.660;5.824;2023-01-30T08:45:11;101569.19;;;5.95;100.00
61119;BME280;51448;51.660;5.824;2023-01-30T08:47:39;101577.03;;;5.97;99.97
61119;BME280;51448;51.660;5.824;2023-01-30T08:50:07;101580.50;;;5.99;99.46
61119;BME280;51448;51.660;5.824;2023-01-30T08:52:35;101590.06;;;6.00;99.51
61119;BME280;51448;51.660;5.824;2023-01-30T08:55:03;101588.34;;;6.02;99.60
61119;BME280;51448;51.660;5.824;2023-01-30T08:57:31;101596.19;;;6.03;98.59
61119;BME280;51448;51.660;5.824;2023-01-30T08:59:59;101602.28;;;6.06;98.76
61119;BME280;51448;51.660;5.824;2023-01-30T09:02:27;101604.03;;;6.08;98.66
61119;BME280;51448;51.660;5.824;2023-01-30T09:04:54;101627.56;;;6.11;98.21
61119;BME280;51448;51.660;5.824;2023-01-30T09:07:22;101611.84;;;6.13;97.45
61119;BME280;51448;51.660;5.824;2023-01-30T09:09:49;101612.72;;;6.15;97.69
61119;BME280;51448;51.660;5.824;2023-01-30T09:12:17;101597.94;;;6.17;97.01
61119;BME280;51448;51.660;5.824;2023-01-30T09:14:44;101611.03;;;6.21;96.41
61119;BME280;51448;51.660;5.824;2023-01-30T09:17:12;101615.38;;;6.24;96.72
61119;BME280;51448;51.660;5.824;2023-01-30T09:19:40;101623.22;;;6.27;96.04
61119;BME280;51448;51.660;5.824;2023-01-30T09:22:07;101620.63;;;6.30;96.06
61119;BME280;51448;51.660;5.824;2023-01-30T09:24:35;101629.34;;;6.34;95.60
61119;BME280;51448;51.660;5.824;2023-01-30T09:27:02;101619.75;;;6.39;95.35
61119;BME280;51448;51.660;5.824;2023-01-30T09:29:30;101632.84;;;6.47;94.95
61119;BME280;51448;51.660;5.824;2023-01-30T09:31:57;101636.34;;;6.58;94.62
61119;BME280;51448;51.660;5.824;2023-01-30T09:34:26;101632.84;;;6.68;94.70
61119;BME280;51448;51.660;5.824;2023-01-30T09:36:58;101637.25;;;6.77;93.89
61119;BME280;51448;51.660;5.824;2023-01-30T09:39:30;101648.56;;;6.83;93.31
61119;BME280;51448;51.660;5.824;2023-01-30T09:42:10;101648.59;;;6.91;92.50
61119;BME280;51448;51.660;5.824;2023-01-30T09:53:29;101650.31;;;7.06;90.53
61119;BME280;51448;51.660;5.824;2023-01-30T09:56:07;101649.44;;;7.10;90.45
61119;BME280;51448;51.660;5.824;2023-01-30T09:58:43;101652.06;;;7.12;89.92
61119;BME280;51448;51.660;5.824;2023-01-30T10:01:22;101654.66;;;7.16;90.30
61119;BME280;51448;51.660;5.824;2023-01-30T10:04:08;101652.94;;;7.20;90.13
61119;BME280;51448;51.660;5.824;2023-01-30T10:13:25;101671.22;;;7.28;88.84
61119;BME280;51448;51.660;5.824;2023-01-30T10:16:20;101676.44;;;7.28;88.97
61119;BME280;51448;51.660;5.824;2023-01-30T10:19:16;101677.31;;;7.30;88.83
61119;BME280;51448;51.660;5.824;2023-01-30T10:27:56;101686.06;;;7.35;88.69
61119;BME280;51448;51.660;5.824;2023-01-30T10:30:30;101674.72;;;7.39;88.53
61119;BME280;51448;51.660;5.824;2023-01-30T10:33:05;101674.69;;;7.47;88.39
61119;BME280;51448;51.660;5.824;2023-01-30T10:35:41;101680.78;;;7.55;88.02
61119;BME280;51448;51.660;5.824;2023-01-30T10:38:23;101674.66;;;7.60;87.88
61119;BME280;51448;51.660;5.824;2023-01-30T10:41:01;101677.28;;;7.63;87.09
61119;BME280;51448;51.660;5.824;2023-01-30T10:43:40;101673.78;;;7.64;86.11
61119;BME280;51448;51.660;5.824;2023-01-30T10:46:34;101699.09;;;7.65;86.42
61119;BME280;51448;51.660;5.824;2023-01-30T10:50:00;101694.75;;;7.63;85.28
61119;BME280;51448;51.660;5.824;2023-01-30T11:01:44;101680.78;;;7.61;84.85
61119;BME280;51448;51.660;5.824;2023-01-30T11:06:59;101686.84;;;7.64;85.72
61119;BME280;51448;51.660;5.824;2023-01-30T11:09:46;101692.97;;;7.70;85.71
61119;BME280;51448;51.660;5.824;2023-01-30T11:12:15;101680.75;;;7.70;85.00
61119;BME280;51448;51.660;5.824;2023-01-30T11:14:56;101682.47;;;7.74;84.64
61119;BME280;51448;51.660;5.824;2023-01-30T11:17:47;101685.09;;;7.77;84.84
61119;BME280;51448;51.660;5.824;2023-01-30T11:20:20;101681.59;;;7.77;84.53
61119;BME280;51448;51.660;5.824;2023-01-30T11:23:03;101682.47;;;7.79;84.66
61119;BME280;51448;51.660;5.824;2023-01-30T11:25:49;101682.47;;;7.82;84.65
61119;BME280;51448;51.660;5.824;2023-01-30T11:28:41;101688.56;;;7.85;84.42
61119;BME280;51448;51.660;5.824;2023-01-30T11:31:24;101692.06;;;7.88;84.47
61119;BME280;51448;51.660;5.824;2023-01-30T11:34:18;101698.16;;;7.90;84.04
61119;BME280;51448;51.660;5.824;2023-01-30T11:36:47;101706.03;;;7.90;85.05
61119;BME280;51448;51.660;5.824;2023-01-30T11:44:31;101688.53;;;7.90;84.39
61119;BME280;51448;51.660;5.824;2023-01-30T11:47:06;101690.31;;;7.90;83.91
61119;BME280;51448;51.660;5.824;2023-01-30T11:49:42;101684.16;;;7.89;83.36
61119;BME280;51448;51.660;5.824;2023-01-30T11:52:36;101693.78;;;7.89;83.95
61119;BME280;51448;51.660;5.824;2023-01-30T11:55:17;101686.78;;;7.95;83.46
61119;BME280;51448;51.660;5.824;2023-01-30T11:57:49;101690.22;;;8.03;84.14
61119;BME280;51448;51.660;5.824;2023-01-30T12:00:54;101684.09;;;8.11;84.42
61119;BME280;51448;51.660;5.824;2023-01-30T12:03:22;101691.09;;;8.07;82.92
61119;BME280;51448;51.660;5.824;2023-01-30T12:05:52;101700.72;;;8.06;83.10
61119;BME280;51448;51.660;5.824;2023-01-30T12:08:24;101698.06;;;8.11;82.85
61119;BME280;51448;51.660;5.824;2023-01-30T12:11:28;101688.44;;;8.16;83.40
61119;BME280;51448;51.660;5.824;2023-01-30T12:17:20;101699.78;;;8.14;82.35
61119;BME280;51448;51.660;5.824;2023-01-30T12:20:05;101704.19;;;8.15;82.38
61119;BME280;51448;51.660;5.824;2023-01-30T12:23:11;101697.19;;;8.15;82.33
61119;BME280;51448;51.660;5.824;2023-01-30T12:29:40;101710.19;;;8.37;83.03
61119;BME280;51448;51.660;5.824;2023-01-30T12:31:45;101704.94;;;8.44;81.73
61119;BME280;51448;51.660;5.824;2023-01-30T12:34:17;101710.16;;;8.44;81.61
61119;BME280;51448;51.660;5.824;2023-01-30T12:40:24;101704.09;;;8.33;81.59
61119;BME280;51448;51.660;5.824;2023-01-30T12:46:14;101739.91;;;8.37;80.91
61119;BME280;51448;51.660;5.824;2023-01-30T12:49:12;101731.13;;;8.40;79.79
61119;BME280;51448;51.660;5.824;2023-01-30T12:52:06;101730.31;;;8.41;81.25
61119;BME280;51448;51.660;5.824;2023-01-30T12:58:45;101736.41;;;8.41;80.53
61119;BME280;51448;51.660;5.824;2023-01-30T13:04:35;101745.13;;;8.34;80.46
61119;BME280;51448;51.660;5.824;2023-01-30T13:10:48;101739.06;;;8.29;80.19
61119;BME280;51448;51.660;5.824;2023-01-30T13:16:38;101746.94;;;8.20;79.97
61119;BME280;51448;51.660;5.824;2023-01-30T13:19:32;101748.69;;;8.21;79.34
61119;BME280;51448;51.660;5.824;2023-01-30T13:22:15;101758.28;;;8.22;79.71
61119;BME280;51448;51.660;5.824;2023-01-30T13:27:45;101769.66;;;8.29;79.05
61119;BME280;51448;51.660;5.824;2023-01-30T13:30:21;101770.50;;;8.29;79.42
61119;BME280;51448;51.660;5.824;2023-01-30T13:32:55;101770.47;;;8.32;78.44
61119;BME280;51448;51.660;5.824;2023-01-30T13:35:49;101778.38;;;8.31;77.94
61119;BME280;51448;51.660;5.824;2023-01-30T13:38:24;101782.72;;;8.30;77.56
61119;BME280;51448;51.660;5.824;2023-01-30T13:40:57;101778.38;;;8.29;78.54
61119;BME280;51448;51.660;5.824;2023-01-30T13:43:43;101784.47;;;8.31;78.01
61119;BME280;51448;51.660;5.824;2023-01-30T13:46:23;101788.84;;;8.29;77.34
61119;BME280;51448;51.660;5.824;2023-01-30T13:51:50;101789.78;;;8.20;79.04
61119;BME280;51448;51.660;5.824;2023-01-30T13:57:49;101800.25;;;8.13;78.80
61119;BME280;51448;51.660;5.824;2023-01-30T14:08:20;101831.72;;;7.99;79.78
61119;BME280;51448;51.660;5.824;2023-01-30T14:10:52;101837.84;;;7.96;79.45
61119;BME280;51448;51.660;5.824;2023-01-30T14:13:23;101840.47;;;7.92;80.23
61119;BME280;51448;51.660;5.824;2023-01-30T14:16:01;101839.59;;;7.90;80.64
61119;BME280;51448;51.660;5.824;2023-01-30T14:18:35;101864.91;;;7.86;80.78
61119;BME280;51448;51.660;5.824;2023-01-30T14:21:12;101852.69;;;7.85;80.81
61119;BME280;51448;51.660;5.824;2023-01-30T14:23:59;101853.56;;;7.82;80.62
61119;BME280;51448;51.660;5.824;2023-01-30T14:40:02;101872.78;;;7.92;81.50
61119;BME280;51448;51.660;5.824;2023-01-30T14:45:51;101897.22;;;8.05;81.72
61119;BME280;51448;51.660;5.824;2023-01-30T14:48:36;101900.72;;;8.04;81.43
61119;BME280;51448;51.660;5.824;2023-01-30T14:56:53;101898.09;;;7.93;81.98
61119;BME280;51448;51.660;5.824;2023-01-30T15:02:53;101911.19;;;7.82;82.49
61119;BME280;51448;51.660;5.824;2023-01-30T15:05:31;101912.94;;;7.80;82.48
61119;BME280;51448;51.660;5.824;2023-01-30T15:08:27;101920.78;;;7.79;82.32
61119;BME280;51448;51.660;5.824;2023-01-30T15:11:12;101923.41;;;7.76;82.24
61119;BME280;51448;51.660;5.824;2023-01-30T15:14:01;101941.72;;;7.73;82.42
61119;BME280;51448;51.660;5.824;2023-01-30T15:16:56;101947.84;;;7.72;82.49
61119;BME280;51448;51.660;5.824;2023-01-30T15:23:13;101946.94;;;7.66;82.96
61119;BME280;51448;51.660;5.824;2023-01-30T15:26:10;101955.66;;;7.62;83.29
61119;BME280;51448;51.660;5.824;2023-01-30T15:31:33;101960.03;;;7.60;83.37
61119;BME280;51448;51.660;5.824;2023-01-30T15:34:18;101969.66;;;7.61;83.36
61119;BME280;51448;51.660;5.824;2023-01-30T15:36:46;101967.91;;;7.59;83.13
61119;BME280;51448;51.660;5.824;2023-01-30T15:39:22;101977.47;;;7.58;83.30